createdAt,value
2023-04-27T00:02:23.441Z,97070.16
2023-04-27T00:04:51.778Z,97067.09
2023-04-27T00:07:20.313Z,97070.56
2023-04-27T00:09:48.498Z,97061.22
2023-04-27T00:12:16.596Z,97058.00
2023-04-27T00:14:44.580Z,97057.00
2023-04-27T00:17:12.952Z,97048.66
2023-04-27T00:19:42.401Z,97050.16
2023-04-27T00:22:11.435Z,97052.38
2023-04-27T00:24:39.540Z,97052.75
2023-04-27T00:27:07.657Z,97051.16
2023-04-27T00:29:35.884Z,97057.56
2023-04-27T00:32:04.082Z,97053.50
2023-04-27T00:34:32.588Z,97058.69
2023-04-27T00:37:02.176Z,97053.94
2023-04-27T00:39:30.191Z,97054.22
2023-04-27T00:41:58.280Z,97060.84
2023-04-27T00:44:29.350Z,97057.28
2023-04-27T00:46:59.344Z,97055.13
2023-04-27T00:49:27.980Z,97057.81
2023-04-27T00:51:57.186Z,97065.63
2023-04-27T00:54:27.636Z,97056.00
2023-04-27T00:56:55.860Z,97060.34
2023-04-27T00:59:24.125Z,97050.91
2023-04-27T01:01:53.835Z,97058.00
2023-04-27T01:04:21.931Z,97060.69
2023-04-27T01:06:50.159Z,97056.47
2023-04-27T01:09:20.095Z,97061.25
2023-04-27T01:11:52.772Z,97057.44
2023-04-27T01:14:22.562Z,97058.69
2023-04-27T01:16:52.753Z,97055.84
2023-04-27T01:19:20.915Z,97062.22
2023-04-27T01:21:48.986Z,97060.03
2023-04-27T01:24:18.636Z,97067.00
2023-04-27T01:26:46.923Z,97065.56
2023-04-27T01:29:15.156Z,97062.19
2023-04-27T01:31:43.328Z,97070.59
2023-04-27T01:34:11.978Z,97070.28
2023-04-27T01:36:40.441Z,97071.06
2023-04-27T01:39:09.980Z,97066.84
2023-04-27T01:41:39.482Z,97077.19
2023-04-27T01:44:07.893Z,97076.25
2023-04-27T01:46:36.051Z,97075.56
2023-04-27T01:49:04.744Z,97082.00
2023-04-27T01:51:33.181Z,97074.34
2023-04-27T01:54:01.437Z,97074.16
2023-04-27T01:56:29.646Z,97077.50
2023-04-27T01:58:59.132Z,97079.28
2023-04-27T02:01:28.372Z,97076.53
2023-04-27T02:03:56.986Z,97076.72
2023-04-27T02:06:25.284Z,97079.16
2023-04-27T02:08:53.502Z,97079.16
2023-04-27T02:11:21.735Z,97085.09
2023-04-27T02:13:52.057Z,97082.66
2023-04-27T02:16:22.012Z,97082.53
2023-04-27T02:18:50.421Z,97091.88
2023-04-27T02:21:18.579Z,97081.47
2023-04-27T02:23:47.027Z,97084.44
2023-04-27T02:26:19.606Z,97088.06
2023-04-27T02:28:51.160Z,97086.34
2023-04-27T02:31:21.136Z,97081.22
2023-04-27T02:33:49.225Z,97095.09
2023-04-27T02:36:18.656Z,97094.47
2023-04-27T02:38:46.803Z,97089.09
2023-04-27T02:41:14.923Z,97091.44
2023-04-27T02:43:42.993Z,97089.56
2023-04-27T02:46:11.151Z,97086.41
2023-04-27T02:48:40.739Z,97096.94
2023-04-27T02:51:08.967Z,97098.69
2023-04-27T02:53:37.267Z,97091.34
2023-04-27T02:56:06.048Z,97095.09
2023-04-27T02:58:34.151Z,97092.44
2023-04-27T03:01:02.775Z,97098.13
2023-04-27T03:03:31.385Z,97097.09
2023-04-27T03:06:00.897Z,97101.81
2023-04-27T03:08:29.204Z,97097.59
2023-04-27T03:10:59.426Z,97109.84
2023-04-27T03:13:28.137Z,97099.31
2023-04-27T03:15:56.385Z,97104.38
2023-04-27T03:18:24.480Z,97106.72
2023-04-27T03:20:52.662Z,97105.13
2023-04-27T03:23:22.108Z,97107.78
2023-04-27T03:25:50.274Z,97104.28
2023-04-27T03:28:18.573Z,97112.66
2023-04-27T03:30:46.935Z,97116.00
2023-04-27T03:33:15.453Z,97111.94
2023-04-27T03:35:43.633Z,97114.59
2023-04-27T03:38:11.754Z,97124.94
2023-04-27T03:40:41.431Z,97122.31
2023-04-27T03:43:09.535Z,97120.56
2023-04-27T03:45:38.157Z,97114.41
2023-04-27T03:48:07.308Z,97130.78
2023-04-27T03:50:36.257Z,97128.66
2023-04-27T03:53:04.438Z,97131.72
2023-04-27T03:55:32.586Z,97140.66
2023-04-27T03:58:02.062Z,97137.38
2023-04-27T04:00:31.445Z,97133.03
2023-04-27T04:03:00.242Z,97143.22
2023-04-27T04:05:30.613Z,97139.59
2023-04-27T04:07:58.748Z,97140.81
2023-04-27T04:10:28.867Z,97135.78
2023-04-27T04:12:57.003Z,97142.69
2023-04-27T04:15:26.635Z,97141.38
2023-04-27T04:17:55.208Z,97153.69
2023-04-27T04:20:23.829Z,97156.19
2023-04-27T04:22:52.105Z,97155.03
2023-04-27T04:25:20.842Z,97154.97
2023-04-27T04:27:49.653Z,97152.75
2023-04-27T04:30:18.244Z,97153.13
2023-04-27T04:32:47.846Z,97151.00
2023-04-27T04:35:17.873Z,97159.22
2023-04-27T04:37:46.996Z,97161.56
2023-04-27T04:40:15.786Z,97162.88
2023-04-27T04:42:43.854Z,97157.72
2023-04-27T04:45:12.972Z,97154.63
2023-04-27T04:47:41.532Z,97152.22
2023-04-27T04:50:13.160Z,97156.84
2023-04-27T04:52:41.636Z,97163.16
2023-04-27T04:55:11.148Z,97170.41
2023-04-27T04:57:39.368Z,97168.31
2023-04-27T05:00:12.062Z,97168.88
2023-04-27T05:02:40.998Z,97160.53
2023-04-27T05:05:11.338Z,97166.16
2023-04-27T05:07:39.450Z,97175.22
2023-04-27T05:10:08.179Z,97173.81
2023-04-27T05:12:36.671Z,97172.31
2023-04-27T05:15:06.172Z,97172.41
2023-04-27T05:17:34.709Z,97166.19
2023-04-27T05:20:06.692Z,97163.50
2023-04-27T05:22:36.732Z,97173.69
2023-04-27T05:25:05.389Z,97177.06
2023-04-27T05:27:33.509Z,97165.94
2023-04-27T05:30:02.061Z,97167.22
2023-04-27T05:32:30.511Z,97171.78
2023-04-27T05:34:58.592Z,97172.63
2023-04-27T05:37:26.804Z,97167.03
2023-04-27T05:39:56.266Z,97178.34
2023-04-27T05:42:24.600Z,97176.19
2023-04-27T05:44:52.717Z,97183.16
2023-04-27T05:47:21.311Z,97179.63
2023-04-27T05:49:52.808Z,97182.25
2023-04-27T05:52:21.492Z,97179.88
2023-04-27T05:54:50.085Z,97182.19
2023-04-27T05:57:19.884Z,97183.13
2023-04-27T05:59:48.076Z,97169.59
2023-04-27T06:02:16.763Z,97177.25
2023-04-27T06:04:45.502Z,97171.28
2023-04-27T06:07:16.220Z,97174.81
2023-04-27T06:09:44.626Z,97173.25
2023-04-27T06:12:12.707Z,97167.16
2023-04-27T06:14:42.252Z,97161.25
2023-04-27T06:17:11.231Z,97169.25
2023-04-27T06:19:39.431Z,97169.00
2023-04-27T06:22:07.732Z,97168.34
2023-04-27T06:24:36.618Z,97158.81
2023-04-27T06:27:05.004Z,97161.19
2023-04-27T06:29:33.533Z,97166.28
2023-04-27T06:32:06.659Z,97165.06
2023-04-27T06:34:35.244Z,97161.19
2023-04-27T06:37:03.404Z,97166.72
2023-04-27T06:39:32.236Z,97162.63
2023-04-27T06:42:00.313Z,97155.25
2023-04-27T06:44:28.980Z,97157.22
2023-04-27T06:46:57.084Z,97154.50
2023-04-27T06:49:26.840Z,97157.09
2023-04-27T06:51:54.912Z,97158.22
2023-04-27T06:54:23.227Z,97157.53
2023-04-27T06:56:51.813Z,97154.44
2023-04-27T06:59:19.992Z,97158.09
2023-04-27T07:01:48.051Z,97158.13
2023-04-27T07:04:16.576Z,97159.56
2023-04-27T07:06:46.405Z,97155.03
2023-04-27T07:09:26.540Z,97150.41
2023-04-27T07:11:57.406Z,97160.28
2023-04-27T07:14:26.092Z,97158.25
2023-04-27T07:16:54.244Z,97158.31
2023-04-27T07:19:22.552Z,97157.69
2023-04-27T07:21:52.317Z,97171.63
2023-04-27T07:24:20.726Z,97165.59
2023-04-27T07:26:49.251Z,97166.13
2023-04-27T07:29:27.039Z,97165.69
2023-04-27T07:31:56.788Z,97168.16
2023-04-27T07:34:25.114Z,97171.72
2023-04-27T07:36:55.162Z,97174.03
2023-04-27T07:39:23.966Z,97177.06
2023-04-27T07:41:52.932Z,97176.97
2023-04-27T07:44:21.707Z,97176.69
2023-04-27T07:46:50.234Z,97173.41
2023-04-27T07:49:18.557Z,97182.41
2023-04-27T07:51:46.992Z,97179.44
2023-04-27T07:54:16.467Z,97165.28
2023-04-27T07:56:44.971Z,97174.91
2023-04-27T07:59:15.056Z,97173.84
2023-04-27T08:01:44.096Z,97171.06
2023-04-27T08:04:14.021Z,97168.44
2023-04-27T08:06:44.461Z,97177.16
2023-04-27T08:09:13.520Z,97177.41
2023-04-27T08:11:43.349Z,97181.41
2023-04-27T08:14:13.842Z,97182.31
2023-04-27T08:16:42.764Z,97185.44
2023-04-27T08:19:12.060Z,97189.38
2023-04-27T08:21:40.780Z,97188.22
2023-04-27T08:24:08.906Z,97186.19
2023-04-27T08:26:37.057Z,97180.56
2023-04-27T08:29:19.320Z,97181.22
2023-04-27T08:31:53.802Z,97192.47
2023-04-27T08:34:24.391Z,97184.94
2023-04-27T08:36:52.516Z,97184.44
2023-04-27T08:39:21.523Z,97182.34
2023-04-27T08:41:49.692Z,97188.38
2023-04-27T08:44:19.484Z,97191.28
2023-04-27T08:46:47.856Z,97190.22
2023-04-27T08:49:17.168Z,97191.59
2023-04-27T08:51:45.927Z,97193.34
2023-04-27T08:54:14.075Z,97191.72
2023-04-27T08:56:42.554Z,97197.03
2023-04-27T08:59:16.301Z,97194.44
2023-04-27T09:01:48.641Z,97193.09
2023-04-27T09:04:18.768Z,97199.97
2023-04-27T09:06:49.164Z,97202.66
2023-04-27T09:09:24.531Z,97199.41
2023-04-27T09:11:52.780Z,97205.72
2023-04-27T09:14:22.783Z,97197.16
2023-04-27T09:17:00.263Z,97195.84
2023-04-27T09:19:30.065Z,97185.16
2023-04-27T09:22:06.298Z,97185.03
2023-04-27T09:24:34.796Z,97183.25
2023-04-27T09:27:05.202Z,97182.53
2023-04-27T09:29:34.676Z,97189.00
2023-04-27T09:32:17.061Z,97184.31
2023-04-27T09:34:46.113Z,97180.13
2023-04-27T09:37:15.356Z,97181.31
2023-04-27T09:39:44.044Z,97184.75
2023-04-27T09:42:13.370Z,97186.06
2023-04-27T09:44:41.589Z,97185.22
2023-04-27T09:47:11.947Z,97173.06
2023-04-27T09:49:40.517Z,97175.41
2023-04-27T09:52:08.598Z,97180.47
2023-04-27T09:54:38.375Z,97189.53
2023-04-27T09:57:18.947Z,97191.09
2023-04-27T10:00:07.983Z,97190.88
2023-04-27T10:02:53.611Z,97184.97
2023-04-27T10:05:48.579Z,97185.81
2023-04-27T10:08:17.243Z,97178.22
2023-04-27T10:10:49.353Z,97184.75
2023-04-27T10:13:25.261Z,97179.22
2023-04-27T10:15:54.133Z,97170.53
2023-04-27T10:18:31.993Z,97173.91
2023-04-27T10:21:11.847Z,97174.97
2023-04-27T10:23:48.598Z,97176.94
2023-04-27T10:26:23.732Z,97171.66
2023-04-27T10:28:59.491Z,97169.69
2023-04-27T10:31:31.117Z,97165.91
2023-04-27T10:34:09.179Z,97165.84
2023-04-27T10:36:38.359Z,97153.34
2023-04-27T10:39:17.080Z,97149.31
2023-04-27T10:41:53.073Z,97164.13
2023-04-27T10:44:26.620Z,97157.94
2023-04-27T10:46:56.619Z,97144.91
2023-04-27T10:49:28.408Z,97147.22
2023-04-27T10:51:59.615Z,97151.13
2023-04-27T10:54:29.685Z,97144.63
2023-04-27T10:57:03.905Z,97145.94
2023-04-27T10:59:32.340Z,97150.06
2023-04-27T11:02:00.778Z,97146.72
2023-04-27T11:04:41.533Z,97155.56
2023-04-27T11:07:11.340Z,97152.06
2023-04-27T11:09:40.750Z,97149.19
2023-04-27T11:12:14.028Z,97159.19
2023-04-27T11:14:42.231Z,97158.03
2023-04-27T11:17:10.327Z,97159.19
2023-04-27T11:19:47.971Z,97152.50
2023-04-27T11:22:17.918Z,97153.44
2023-04-27T11:24:50.339Z,97142.16
2023-04-27T11:27:19.183Z,97150.97
2023-04-27T11:29:47.199Z,97160.47
2023-04-27T11:32:23.046Z,97160.81
2023-04-27T11:34:54.412Z,97160.78
2023-04-27T11:37:25.596Z,97163.31
2023-04-27T11:39:54.639Z,97168.00
2023-04-27T11:42:24.829Z,97168.31
2023-04-27T11:44:54.345Z,97169.22
2023-04-27T11:47:23.009Z,97167.31
2023-04-27T11:49:54.006Z,97161.91
2023-04-27T11:52:24.028Z,97163.78
2023-04-27T11:54:56.482Z,97159.91
2023-04-27T11:57:29.325Z,97159.78
2023-04-27T12:00:00.396Z,97160.47
2023-04-27T12:02:29.642Z,97167.31
2023-04-27T12:05:00.575Z,97169.47
2023-04-27T12:07:29.050Z,97161.53
2023-04-27T12:09:58.955Z,97169.50
2023-04-27T12:12:29.109Z,97168.16
2023-04-27T12:14:58.033Z,97179.72
2023-04-27T12:17:26.247Z,97181.88
2023-04-27T12:19:54.719Z,97178.38
2023-04-27T12:22:24.366Z,97177.41
2023-04-27T12:24:52.653Z,97174.81
2023-04-27T12:27:20.903Z,97175.19
2023-04-27T12:29:49.242Z,97177.91
2023-04-27T12:32:17.614Z,97187.56
2023-04-27T12:34:45.745Z,97181.06
2023-04-27T12:37:14.066Z,97177.44
2023-04-27T12:39:43.650Z,97178.84
2023-04-27T12:42:11.848Z,97180.00
2023-04-27T12:44:41.358Z,97172.44
2023-04-27T12:47:11.486Z,97176.38
2023-04-27T12:49:43.462Z,97174.97
2023-04-27T12:52:11.646Z,97178.03
2023-04-27T12:54:39.891Z,97181.59
2023-04-27T12:57:09.498Z,97167.88
2023-04-27T12:59:38.029Z,97170.44
2023-04-27T13:02:07.760Z,97164.28
2023-04-27T13:04:36.389Z,97161.69
2023-04-27T13:07:04.548Z,97176.28
2023-04-27T13:09:32.914Z,97177.06
2023-04-27T13:12:01.744Z,97163.84
2023-04-27T13:14:33.477Z,97169.94
2023-04-27T13:17:02.164Z,97169.38
2023-04-27T13:19:30.196Z,97149.47
2023-04-27T13:21:58.567Z,97157.31
2023-04-27T13:24:29.342Z,97159.06
2023-04-27T13:26:57.576Z,97157.72
2023-04-27T13:29:25.891Z,97163.31
2023-04-27T13:31:56.091Z,97165.28
2023-04-27T13:34:24.658Z,97164.84
2023-04-27T13:36:52.845Z,97150.56
2023-04-27T13:39:22.295Z,97161.44
2023-04-27T13:41:50.515Z,97160.06
2023-04-27T13:44:18.576Z,97160.88
2023-04-27T13:46:47.096Z,97168.41
2023-04-27T13:49:16.622Z,97168.69
2023-04-27T13:51:45.282Z,97154.25
2023-04-27T13:54:13.562Z,97153.03
2023-04-27T13:56:42.133Z,97154.53
2023-04-27T13:59:10.664Z,97166.75
2023-04-27T14:01:40.177Z,97157.03
2023-04-27T14:04:08.656Z,97161.34
2023-04-27T14:06:38.328Z,97156.69
2023-04-27T14:09:06.378Z,97159.91
2023-04-27T14:11:45.059Z,97157.72
2023-04-27T14:14:21.018Z,97161.25
2023-04-27T14:16:51.072Z,97151.16
2023-04-27T14:19:20.816Z,97156.19
2023-04-27T14:21:51.359Z,97149.19
2023-04-27T14:24:19.918Z,97140.44
2023-04-27T14:26:48.869Z,97146.63
2023-04-27T14:29:17.432Z,97146.69
2023-04-27T14:31:46.451Z,97156.88
2023-04-27T14:34:15.609Z,97143.56
2023-04-27T14:36:43.828Z,97136.13
2023-04-27T14:39:14.650Z,97144.94
2023-04-27T14:41:42.985Z,97146.97
2023-04-27T14:44:11.241Z,97141.25
2023-04-27T14:46:39.469Z,97149.47
2023-04-27T14:49:07.720Z,97138.06
2023-04-27T14:51:35.923Z,97139.50
2023-04-27T14:54:04.422Z,97139.81
2023-04-27T14:56:34.061Z,97139.22
2023-04-27T14:59:02.221Z,97141.22
2023-04-27T15:01:30.890Z,97144.09
2023-04-27T15:03:59.539Z,97138.19
2023-04-27T15:06:28.915Z,97153.44
2023-04-27T15:08:57.314Z,97145.34
2023-04-27T15:11:25.505Z,97145.78
2023-04-27T15:13:55.414Z,97147.53
2023-04-27T15:16:23.633Z,97143.34
2023-04-27T15:18:52.260Z,97142.34
2023-04-27T15:21:20.382Z,97142.50
2023-04-27T15:23:48.685Z,97144.97
2023-04-27T15:26:17.000Z,97145.38
2023-04-27T15:28:45.184Z,97156.16
2023-04-27T15:31:14.908Z,97163.16
2023-04-27T15:33:42.950Z,97164.31
2023-04-27T15:36:11.345Z,97160.81
2023-04-27T15:38:39.694Z,97159.66
2023-04-27T15:41:08.178Z,97161.59
2023-04-27T15:43:36.557Z,97163.56
2023-04-27T15:46:05.709Z,97157.63
2023-04-27T15:48:35.701Z,97154.84
2023-04-27T15:51:04.037Z,97142.09
2023-04-27T15:53:32.557Z,97138.44
2023-04-27T15:56:00.768Z,97134.63
2023-04-27T15:58:29.076Z,97142.00
2023-04-27T16:00:57.795Z,97141.53
2023-04-27T16:03:27.239Z,97148.91
2023-04-27T16:05:57.594Z,97145.72
2023-04-27T16:08:27.854Z,97142.81
2023-04-27T16:10:56.198Z,97141.72
2023-04-27T16:13:25.304Z,97137.69
2023-04-27T16:15:53.785Z,97133.47
2023-04-27T16:18:22.444Z,97138.56
2023-04-27T16:20:50.629Z,97133.22
2023-04-27T16:23:20.051Z,97129.63
2023-04-27T16:25:48.489Z,97123.75
2023-04-27T16:28:18.083Z,97120.78
2023-04-27T16:30:46.384Z,97124.19
2023-04-27T16:33:14.987Z,97130.50
2023-04-27T16:35:43.295Z,97126.78
2023-04-27T16:38:11.347Z,97114.56
2023-04-27T16:40:40.826Z,97121.84
2023-04-27T16:43:09.236Z,97121.13
2023-04-27T16:45:38.620Z,97128.16
2023-04-27T16:48:06.957Z,97121.72
2023-04-27T16:50:35.554Z,97119.38
2023-04-27T16:53:07.223Z,97120.75
2023-04-27T16:55:35.974Z,97120.59
2023-04-27T16:58:05.387Z,97121.84
2023-04-27T17:00:33.471Z,97124.97
2023-04-27T17:03:01.656Z,97133.63
2023-04-27T17:05:29.915Z,97129.88
2023-04-27T17:07:58.295Z,97124.72
2023-04-27T17:10:26.982Z,97125.28
2023-04-27T17:12:56.919Z,97129.69
2023-04-27T17:15:28.806Z,97131.53
2023-04-27T17:17:57.148Z,97129.72
2023-04-27T17:20:25.275Z,97133.94
2023-04-27T17:22:53.464Z,97132.94
2023-04-27T17:25:22.207Z,97129.56
2023-04-27T17:27:50.372Z,97134.25
2023-04-27T17:30:18.422Z,97135.13
2023-04-27T17:32:48.245Z,97139.03
2023-04-27T17:35:16.423Z,97137.69
2023-04-27T17:37:44.765Z,97137.28
2023-04-27T17:40:14.092Z,97142.59
2023-04-27T17:42:42.451Z,97140.25
2023-04-27T17:45:11.542Z,97139.56
2023-04-27T17:47:39.725Z,97137.59
2023-04-27T17:50:10.502Z,97138.91
2023-04-27T17:52:38.675Z,97144.03
2023-04-27T17:55:07.458Z,97137.75
2023-04-27T17:57:35.754Z,97144.00
2023-04-27T18:00:04.628Z,97149.75
2023-04-27T18:02:38.523Z,97141.94
2023-04-27T18:05:07.117Z,97150.03
2023-04-27T18:07:37.604Z,97150.34
2023-04-27T18:10:06.802Z,97160.06
2023-04-27T18:12:35.111Z,97160.81
2023-04-27T18:15:05.545Z,97168.75
2023-04-27T18:17:35.868Z,97165.13
2023-04-27T18:20:09.470Z,97176.44
2023-04-27T18:22:41.234Z,97180.94
2023-04-27T18:25:10.964Z,97184.09
2023-04-27T18:27:39.212Z,97186.59
2023-04-27T18:30:09.018Z,97190.63
2023-04-27T18:32:37.411Z,97193.56
2023-04-27T18:35:06.837Z,97188.28
2023-04-27T18:37:35.015Z,97191.03
2023-04-27T18:40:06.022Z,97198.13
2023-04-27T18:42:34.439Z,97198.91
2023-04-27T18:45:02.864Z,97200.56
2023-04-27T18:47:32.163Z,97197.72
2023-04-27T18:50:00.528Z,97214.41
2023-04-27T18:52:28.675Z,97210.09
2023-04-27T18:54:56.763Z,97213.06
2023-04-27T18:57:26.584Z,97211.84
2023-04-27T18:59:54.954Z,97209.00
2023-04-27T19:02:25.299Z,97212.22
2023-04-27T19:05:10.429Z,97210.84
2023-04-27T19:07:41.268Z,97222.81
2023-04-27T19:10:10.757Z,97224.84
2023-04-27T19:12:40.249Z,97229.59
2023-04-27T19:15:09.049Z,97230.81
2023-04-27T19:17:37.309Z,97228.84
2023-04-27T19:20:06.828Z,97231.91
2023-04-27T19:22:37.036Z,97231.09
2023-04-27T19:25:06.144Z,97225.75
2023-04-27T19:27:34.436Z,97233.66
2023-04-27T19:30:05.926Z,97241.94
2023-04-27T19:32:34.734Z,97242.72
2023-04-27T19:35:03.227Z,97239.59
2023-04-27T19:37:31.399Z,97241.56
2023-04-27T19:39:59.633Z,97240.31
2023-04-27T19:42:28.035Z,97244.47
2023-04-27T19:44:56.931Z,97246.13
2023-04-27T19:47:26.947Z,97246.41
2023-04-27T19:49:58.472Z,97242.66
2023-04-27T19:52:27.304Z,97244.63
2023-04-27T19:54:55.838Z,97249.47
2023-04-27T19:57:23.908Z,97241.22
2023-04-27T19:59:52.334Z,97243.72
2023-04-27T20:02:20.583Z,97242.25
2023-04-27T20:04:50.513Z,97246.50
2023-04-27T20:07:19.232Z,97242.06
2023-04-27T20:09:47.412Z,97232.22
2023-04-27T20:12:37.186Z,97234.13
2023-04-27T20:15:06.791Z,97230.16
2023-04-27T20:17:34.989Z,97226.84
2023-04-27T20:20:10.193Z,97220.34
2023-04-27T20:22:39.146Z,97218.50
2023-04-27T20:25:08.380Z,97221.16
2023-04-27T20:27:36.568Z,97221.03
2023-04-27T20:30:05.554Z,97211.97
2023-04-27T20:32:34.332Z,97216.03
2023-04-27T20:35:05.401Z,97219.13
2023-04-27T20:37:33.647Z,97212.16
2023-04-27T20:40:01.902Z,97212.56
2023-04-27T20:42:31.249Z,97207.63
2023-04-27T20:44:59.502Z,97209.91
2023-04-27T20:47:27.765Z,97210.16
2023-04-27T20:49:56.349Z,97209.66
2023-04-27T20:52:27.983Z,97204.53
2023-04-27T20:54:58.958Z,97210.38
2023-04-27T20:57:27.325Z,97206.88
2023-04-27T20:59:56.106Z,97219.00
2023-04-27T21:02:24.396Z,97211.53
2023-04-27T21:04:53.139Z,97204.88
2023-04-27T21:07:21.641Z,97205.78
2023-04-27T21:09:51.278Z,97204.47
2023-04-27T21:12:19.320Z,97201.56
2023-04-27T21:14:47.879Z,97205.06
2023-04-27T21:17:16.074Z,97207.31
2023-04-27T21:19:44.265Z,97190.41
2023-04-27T21:22:12.255Z,97188.75
2023-04-27T21:24:41.506Z,97190.66
2023-04-27T21:27:11.639Z,97194.91
2023-04-27T21:29:39.824Z,97192.50
2023-04-27T21:32:08.228Z,97197.50
2023-04-27T21:34:36.474Z,97192.69
2023-04-27T21:37:04.585Z,97193.03
2023-04-27T21:39:32.899Z,97193.47
2023-04-27T21:42:01.402Z,97189.53
2023-04-27T21:44:31.085Z,97183.91
2023-04-27T21:46:59.205Z,97183.75
2023-04-27T21:49:27.521Z,97192.63
2023-04-27T21:51:55.818Z,97190.66
2023-04-27T21:54:23.975Z,97186.97
2023-04-27T21:56:52.171Z,97191.78
2023-04-27T21:59:20.795Z,97190.19
2023-04-27T22:01:50.650Z,97190.78
2023-04-27T22:04:20.924Z,97190.78
2023-04-27T22:06:53.305Z,97189.53
2023-04-27T22:09:21.400Z,97179.97
2023-04-27T22:11:49.647Z,97181.84
2023-04-27T22:14:18.043Z,97176.53
2023-04-27T22:16:46.753Z,97181.69
2023-04-27T22:19:17.965Z,97169.81
2023-04-27T22:21:46.302Z,97178.41
2023-04-27T22:24:14.667Z,97167.25
2023-04-27T22:26:43.038Z,97172.13
2023-04-27T22:29:11.940Z,97177.47
2023-04-27T22:31:40.188Z,97183.06
2023-04-27T22:34:08.653Z,97184.88
2023-04-27T22:36:38.555Z,97192.31
2023-04-27T22:39:07.216Z,97192.56
2023-04-27T22:41:36.181Z,97180.97
2023-04-27T22:44:04.289Z,97178.16
2023-04-27T22:46:32.775Z,97186.78
2023-04-27T22:49:01.528Z,97184.34
2023-04-27T22:51:29.927Z,97182.59
2023-04-27T22:53:59.553Z,97173.25
2023-04-27T22:56:27.755Z,97173.25
2023-04-27T22:58:55.843Z,97172.75
2023-04-27T23:01:24.055Z,97172.41
2023-04-27T23:03:53.323Z,97167.28
2023-04-27T23:06:22.203Z,97160.56
2023-04-27T23:08:51.706Z,97165.56
2023-04-27T23:11:21.190Z,97172.75
2023-04-27T23:13:50.650Z,97161.25
2023-04-27T23:16:18.875Z,97163.00
2023-04-27T23:18:47.425Z,97155.88
2023-04-27T23:21:15.728Z,97150.56
2023-04-27T23:23:43.832Z,97160.19
2023-04-27T23:26:16.391Z,97165.03
2023-04-27T23:28:45.888Z,97161.38
2023-04-27T23:31:14.275Z,97163.03
2023-04-27T23:33:42.484Z,97155.50
2023-04-27T23:36:10.545Z,97158.91
2023-04-27T23:38:38.762Z,97153.00
2023-04-27T23:41:06.890Z,97153.00
2023-04-27T23:43:35.532Z,97144.00
2023-04-27T23:46:05.839Z,97144.84
2023-04-27T23:48:34.159Z,97143.53
2023-04-27T23:51:03.313Z,97139.06
2023-04-27T23:53:32.642Z,97142.41
2023-04-27T23:56:00.898Z,97147.69
2023-04-27T23:58:29.150Z,97146.19
